Time;durP1;ratioP1;P1;durP2;ratioP2;P2;SDS_P1;SDS_P2;PMS_P1;PMS_P2;Temp;Humidity;BMP_temperature;BMP_pressure;BME280_temperature;BME280_humidity;BME280_pressure;Samples;Min_cycle;Max_cycle;Signal;HPM_P1;HPM_P2
2024/02/06 00:00:27;;;;;;;8.47;2.20;;;;;;;;;;5034759;28;20037;-56
2024/02/06 00:02:52;;;;;;;8.25;2.08;;;;;;;;;;5021564;28;20486;-57
2024/02/06 00:05:18;;;;;;;11.45;2.25;;;;;;;;;;5029819;28;20052;-56
2024/02/06 00:07:43;;;;;;;11.03;2.40;;;;;;;;;;5032965;28;20127;-57
2024/02/06 00:10:08;;;;;;;7.13;2.30;;;;;;;;;;5029878;28;20021;-57
2024/02/06 00:12:33;;;;;;;10.18;2.15;;;;;;;;;;5030239;28;20475;-57
2024/02/06 00:14:58;;;;;;;7.70;2.00;;;;;;;;;;5033793;28;20477;-57
2024/02/06 00:17:23;;;;;;;7.90;1.92;;;;;;;;;;5041035;28;20041;-57
2024/02/06 00:19:49;;;;;;;10.18;2.10;;;;;;;;;;5036546;28;20039;-58
2024/02/06 00:22:14;;;;;;;11.60;2.30;;;;;;;;;;5041218;28;20033;-57
2024/02/06 00:24:39;;;;;;;11.45;2.67;;;;;;;;;;5041878;28;20026;-57
2024/02/06 00:27:04;;;;;;;10.68;3.45;;;;;;;;;;5040870;28;20021;-59
2024/02/06 00:29:30;;;;;;;11.40;2.23;;;;;;;;;;5031059;28;20033;-57
2024/02/06 00:31:55;;;;;;;9.63;2.17;;;;;;;;;;5031175;28;20025;-57
2024/02/06 00:34:20;;;;;;;9.18;2.17;;;;;;;;;;5012022;28;20018;-57
2024/02/06 00:36:45;;;;;;;11.90;2.72;;;;;;;;;;5026623;28;20032;-57
2024/02/06 00:39:10;;;;;;;6.90;1.97;;;;;;;;;;5019312;28;20440;-56
2024/02/06 00:41:37;;;;;;;9.10;2.20;;;;;;;;;;5030545;28;20025;-57
2024/02/06 00:44:02;;;;;;;11.48;2.55;;;;;;;;;;5019596;28;20034;-56
2024/02/06 00:46:27;;;;;;;9.33;2.20;;;;;;;;;;5023099;28;20522;-57
2024/02/06 00:48:53;;;;;;;8.63;1.88;;;;;;;;;;5030657;28;20056;-58
2024/02/06 00:51:18;;;;;;;20.30;5.70;;;;;;;;;;5024803;28;20038;-56
2024/02/06 00:53:43;;;;;;;9.17;2.73;;;;;;;;;;5029554;28;20132;-57
2024/02/06 00:56:08;;;;;;;7.28;2.22;;;;;;;;;;5027986;28;20474;-57
2024/02/06 00:58:33;;;;;;;11.02;1.95;;;;;;;;;;5018885;28;20402;-58
2024/02/06 01:01:00;;;;;;;10.27;2.08;;;;;;;;;;5019672;28;20034;-56
2024/02/06 01:03:25;;;;;;;11.30;2.20;;;;;;;;;;5025499;28;20385;-59
2024/02/06 01:05:50;;;;;;;10.05;2.22;;;;;;;;;;5020052;28;20018;-57
2024/02/06 01:08:16;;;;;;;12.47;2.30;;;;;;;;;;5018178;28;20080;-58
2024/02/06 01:10:41;;;;;;;14.27;2.90;;;;;;;;;;5022814;28;20120;-57
2024/02/06 01:13:06;;;;;;;7.07;2.20;;;;;;;;;;5023521;28;20097;-57
2024/02/06 01:15:32;;;;;;;9.63;1.93;;;;;;;;;;5022033;28;20104;-56
2024/02/06 01:17:57;;;;;;;8.55;2.53;;;;;;;;;;5030780;28;20681;-57
2024/02/06 01:20:22;;;;;;;15.43;2.47;;;;;;;;;;5026309;28;20021;-57
2024/02/06 01:22:48;;;;;;;9.43;2.17;;;;;;;;;;5028722;28;20049;-58
2024/02/06 01:25:13;;;;;;;11.30;2.10;;;;;;;;;;5020064;28;20049;-57
2024/02/06 01:27:38;;;;;;;10.93;2.63;;;;;;;;;;5022789;28;20478;-58
2024/02/06 01:30:04;;;;;;;11.40;2.75;;;;;;;;;;5031198;28;20033;-57
2024/02/06 01:32:29;;;;;;;9.32;2.20;;;;;;;;;;5031312;28;20418;-56
2024/02/06 01:34:54;;;;;;;9.60;2.40;;;;;;;;;;5029573;28;20017;-56
2024/02/06 01:37:20;;;;;;;8.32;2.53;;;;;;;;;;5040742;28;20017;-58
2024/02/06 01:39:45;;;;;;;8.98;2.78;;;;;;;;;;5037445;28;20021;-57
2024/02/06 01:42:10;;;;;;;9.50;2.50;;;;;;;;;;5034320;28;20438;-57
2024/02/06 01:44:36;;;;;;;9.32;2.72;;;;;;;;;;5034505;28;20017;-57
2024/02/06 01:47:02;;;;;;;11.35;3.42;;;;;;;;;;5033995;28;20039;-57
2024/02/06 01:49:27;;;;;;;9.32;2.22;;;;;;;;;;5030561;28;20468;-56
2024/02/06 01:51:53;;;;;;;10.95;2.83;;;;;;;;;;5032348;28;20025;-57
2024/02/06 01:54:19;;;;;;;9.87;2.70;;;;;;;;;;5026685;28;20421;-57
2024/02/06 01:56:44;;;;;;;11.35;2.45;;;;;;;;;;5032639;28;20026;-58
2024/02/06 01:59:10;;;;;;;8.48;2.10;;;;;;;;;;5035794;28;20029;-57
2024/02/06 02:01:35;;;;;;;8.48;2.40;;;;;;;;;;5031125;28;20068;-59
2024/02/06 02:04:00;;;;;;;8.33;2.50;;;;;;;;;;5033611;28;20018;-57
2024/02/06 02:06:26;;;;;;;9.95;2.65;;;;;;;;;;5029115;28;20041;-58
2024/02/06 02:08:51;;;;;;;12.70;2.08;;;;;;;;;;5026928;28;20021;-57
2024/02/06 02:11:17;;;;;;;10.10;2.65;;;;;;;;;;5031243;28;20043;-58
2024/02/06 02:13:42;;;;;;;9.50;2.38;;;;;;;;;;5029635;28;20038;-57
2024/02/06 02:16:07;;;;;;;8.03;2.60;;;;;;;;;;5023430;28;20026;-58
2024/02/06 02:18:34;;;;;;;11.77;2.50;;;;;;;;;;5038076;28;20030;-58
2024/02/06 02:21:05;;;;;;;11.05;2.35;;;;;;;;;;5050163;28;20060;-59
2024/02/06 02:23:30;;;;;;;9.07;2.60;;;;;;;;;;5018955;28;20112;-58
2024/02/06 02:25:56;;;;;;;8.75;2.50;;;;;;;;;;5014359;28;20481;-57
2024/02/06 02:28:21;;;;;;;11.00;2.40;;;;;;;;;;5013979;28;20017;-59
2024/02/06 02:30:46;;;;;;;9.10;2.30;;;;;;;;;;5016676;28;20022;-57
2024/02/06 02:33:12;;;;;;;11.40;2.83;;;;;;;;;;5031903;28;20013;-57
2024/02/06 02:35:37;;;;;;;9.70;2.50;;;;;;;;;;5030062;28;20049;-56
2024/02/06 02:38:04;;;;;;;8.87;2.43;;;;;;;;;;5032701;28;20470;-57
2024/02/06 02:40:29;;;;;;;9.43;2.85;;;;;;;;;;5024281;28;20042;-56
2024/02/06 02:42:55;;;;;;;10.13;2.53;;;;;;;;;;5031096;28;20025;-57
2024/02/06 02:45:20;;;;;;;11.07;2.60;;;;;;;;;;5030891;28;20026;-58
2024/02/06 02:47:46;;;;;;;11.23;3.00;;;;;;;;;;5013358;28;20449;-58
2024/02/06 02:50:11;;;;;;;9.57;2.50;;;;;;;;;;5018782;28;20108;-58
2024/02/06 02:52:36;;;;;;;14.23;2.90;;;;;;;;;;5028835;28;20044;-56
2024/02/06 02:55:01;;;;;;;12.35;3.15;;;;;;;;;;5030271;28;20386;-56
2024/02/06 02:57:26;;;;;;;12.05;3.40;;;;;;;;;;5032116;28;20037;-57
2024/02/06 02:59:51;;;;;;;7.80;2.73;;;;;;;;;;5029152;28;20033;-58
2024/02/06 03:02:17;;;;;;;10.53;3.07;;;;;;;;;;5030722;28;20033;-58
2024/02/06 03:04:42;;;;;;;10.60;3.17;;;;;;;;;;5016656;28;20551;-57
2024/02/06 03:07:07;;;;;;;12.77;2.60;;;;;;;;;;5024178;28;20473;-58
2024/02/06 03:09:36;;;;;;;10.07;2.40;;;;;;;;;;5022836;28;20107;-57
2024/02/06 03:12:01;;;;;;;12.13;2.97;;;;;;;;;;5024440;28;20072;-58
2024/02/06 03:14:26;;;;;;;10.98;2.72;;;;;;;;;;5027029;28;20429;-57
2024/02/06 03:16:51;;;;;;;8.27;2.63;;;;;;;;;;5030228;28;20021;-56
2024/02/06 03:19:16;;;;;;;11.57;2.80;;;;;;;;;;5030479;28;20028;-58
2024/02/06 03:21:41;;;;;;;11.93;2.97;;;;;;;;;;5030703;28;20030;-57
2024/02/06 03:24:07;;;;;;;9.43;2.70;;;;;;;;;;5026082;28;20037;-57
2024/02/06 03:26:32;;;;;;;11.33;2.83;;;;;;;;;;5012160;28;20111;-57
2024/02/06 03:28:57;;;;;;;9.13;2.58;;;;;;;;;;5021526;28;20026;-57
2024/02/06 03:31:22;;;;;;;9.18;2.90;;;;;;;;;;5020323;28;20508;-56
2024/02/06 03:33:47;;;;;;;11.77;2.63;;;;;;;;;;5020008;28;20036;-56
2024/02/06 03:36:12;;;;;;;10.57;2.80;;;;;;;;;;5031995;28;20103;-58
2024/02/06 03:38:38;;;;;;;8.65;3.00;;;;;;;;;;5031900;28;20028;-57
2024/02/06 03:41:03;;;;;;;10.98;2.92;;;;;;;;;;5029916;28;20033;-57
2024/02/06 03:43:28;;;;;;;9.97;3.20;;;;;;;;;;5028146;28;20025;-56
2024/02/06 03:45:53;;;;;;;12.32;2.75;;;;;;;;;;5025582;28;20387;-58
2024/02/06 03:48:18;;;;;;;12.33;2.77;;;;;;;;;;5027247;28;20021;-57
2024/02/06 03:50:43;;;;;;;9.68;2.63;;;;;;;;;;5030262;28;20025;-57
2024/02/06 03:53:09;;;;;;;9.47;2.17;;;;;;;;;;5030424;28;20021;-56
2024/02/06 03:55:34;;;;;;;11.93;2.45;;;;;;;;;;5029663;28;20025;-58
2024/02/06 03:57:59;;;;;;;9.07;2.40;;;;;;;;;;5017696;28;20034;-58
2024/02/06 04:00:24;;;;;;;11.83;3.03;;;;;;;;;;5023229;28;20117;-57
2024/02/06 04:02:49;;;;;;;9.02;2.90;;;;;;;;;;5021517;28;20396;-58
2024/02/06 04:05:14;;;;;;;12.23;2.55;;;;;;;;;;5023079;28;20417;-57
2024/02/06 04:07:39;;;;;;;10.27;3.27;;;;;;;;;;5025657;28;20064;-58
2024/02/06 04:10:05;;;;;;;9.65;2.63;;;;;;;;;;5027239;28;20018;-57
2024/02/06 04:12:30;;;;;;;12.20;2.70;;;;;;;;;;5022831;28;20025;-58
2024/02/06 04:14:55;;;;;;;11.70;3.15;;;;;;;;;;5030372;28;20047;-57
2024/02/06 04:17:20;;;;;;;10.82;3.03;;;;;;;;;;5029762;28;20029;-57
2024/02/06 04:19:46;;;;;;;11.00;3.40;;;;;;;;;;5033876;28;20032;-56
2024/02/06 04:22:11;;;;;;;12.93;2.85;;;;;;;;;;5034848;28;20045;-57
2024/02/06 04:24:36;;;;;;;11.63;2.78;;;;;;;;;;5026124;28;20375;-58
2024/02/06 04:27:01;;;;;;;11.93;2.97;;;;;;;;;;5036302;28;20029;-58
2024/02/06 04:29:26;;;;;;;10.57;2.90;;;;;;;;;;5039984;28;20489;-58
2024/02/06 04:31:53;;;;;;;13.88;3.28;;;;;;;;;;5032897;28;20032;-62
2024/02/06 04:34:18;;;;;;;12.32;2.63;;;;;;;;;;5036635;28;20044;-57
2024/02/06 04:36:43;;;;;;;12.87;2.70;;;;;;;;;;5027811;28;20018;-57
2024/02/06 04:39:08;;;;;;;13.80;2.90;;;;;;;;;;5028900;28;20485;-57
2024/02/06 04:41:36;;;;;;;8.05;2.80;;;;;;;;;;5024535;28;20038;-57
2024/02/06 04:44:01;;;;;;;11.68;2.90;;;;;;;;;;5030934;28;20017;-57
2024/02/06 04:46:26;;;;;;;10.73;2.83;;;;;;;;;;5031252;28;20017;-57
2024/02/06 04:48:52;;;;;;;10.57;2.40;;;;;;;;;;5024466;28;20805;-58
2024/02/06 04:51:17;;;;;;;12.07;2.60;;;;;;;;;;5029583;28;20029;-58
2024/02/06 04:53:42;;;;;;;9.27;2.30;;;;;;;;;;5029166;28;20040;-56
2024/02/06 04:56:07;;;;;;;9.88;2.45;;;;;;;;;;5031324;28;20386;-57
2024/02/06 04:58:33;;;;;;;9.20;2.23;;;;;;;;;;5031393;28;20021;-58
2024/02/06 05:00:58;;;;;;;8.68;3.20;;;;;;;;;;5030448;28;20024;-57
2024/02/06 05:03:23;;;;;;;10.77;2.53;;;;;;;;;;5026750;28;20390;-57
2024/02/06 05:05:48;;;;;;;11.70;2.60;;;;;;;;;;5023529;28;20105;-57
2024/02/06 05:08:13;;;;;;;8.63;2.92;;;;;;;;;;5029014;28;20051;-56
2024/02/06 05:10:39;;;;;;;8.75;2.53;;;;;;;;;;5030683;28;20021;-56
2024/02/06 05:13:05;;;;;;;12.60;2.83;;;;;;;;;;5031865;28;20053;-58
2024/02/06 05:15:30;;;;;;;8.32;2.55;;;;;;;;;;5033526;28;20021;-58
2024/02/06 05:17:55;;;;;;;7.43;2.22;;;;;;;;;;5024573;28;20485;-58
2024/02/06 05:20:21;;;;;;;10.43;2.65;;;;;;;;;;5034546;28;20037;-57
2024/02/06 05:22:46;;;;;;;12.30;2.73;;;;;;;;;;5021768;28;20037;-57
2024/02/06 05:25:11;;;;;;;11.75;2.63;;;;;;;;;;5030812;28;20512;-57
2024/02/06 05:27:37;;;;;;;7.68;2.50;;;;;;;;;;5023393;28;20025;-58
2024/02/06 05:30:04;;;;;;;9.07;2.72;;;;;;;;;;5025854;28;20071;-57
2024/02/06 05:32:30;;;;;;;11.02;2.50;;;;;;;;;;5030028;28;20430;-56
2024/02/06 05:34:57;;;;;;;7.13;2.88;;;;;;;;;;5028595;28;20101;-58
2024/02/06 05:37:22;;;;;;;10.50;2.70;;;;;;;;;;5023764;28;20108;-58
2024/02/06 05:39:48;;;;;;;9.85;2.90;;;;;;;;;;5028503;28;20105;-57
2024/02/06 05:42:13;;;;;;;13.25;3.03;;;;;;;;;;5021810;28;20071;-58
2024/02/06 05:44:39;;;;;;;9.00;2.88;;;;;;;;;;5025935;28;20049;-57
2024/02/06 05:47:04;;;;;;;8.90;3.00;;;;;;;;;;5028809;28;20030;-57
2024/02/06 05:49:29;;;;;;;10.02;2.78;;;;;;;;;;5028812;28;20488;-57
2024/02/06 05:51:55;;;;;;;11.10;2.23;;;;;;;;;;5026970;28;20682;-58
2024/02/06 05:54:20;;;;;;;12.37;2.80;;;;;;;;;;5034280;28;20037;-56
2024/02/06 05:56:45;;;;;;;7.15;2.25;;;;;;;;;;5023505;28;20092;-57
2024/02/06 05:59:10;;;;;;;9.90;2.60;;;;;;;;;;5029059;28;20037;-57
2024/02/06 06:01:36;;;;;;;10.70;2.35;;;;;;;;;;5034874;28;20524;-57
2024/02/06 06:04:02;;;;;;;10.13;2.92;;;;;;;;;;5028036;28;20445;-57
2024/02/06 06:06:27;;;;;;;6.43;2.22;;;;;;;;;;5023431;28;20026;-56
2024/02/06 06:08:52;;;;;;;7.97;2.27;;;;;;;;;;5025691;28;20029;-56
2024/02/06 06:11:19;;;;;;;11.40;3.37;;;;;;;;;;5025501;28;20032;-57
2024/02/06 06:13:45;;;;;;;9.48;2.58;;;;;;;;;;5021283;28;20029;-57
2024/02/06 06:16:10;;;;;;;11.57;2.40;;;;;;;;;;5030420;28;20036;-58
2024/02/06 06:18:35;;;;;;;9.90;2.70;;;;;;;;;;5029652;28;20470;-56
2024/02/06 06:21:00;;;;;;;10.82;2.70;;;;;;;;;;5031254;28;20030;-57
2024/02/06 06:23:25;;;;;;;9.90;2.58;;;;;;;;;;5032482;28;20060;-57
2024/02/06 06:25:50;;;;;;;12.68;2.85;;;;;;;;;;5033013;28;20041;-57
2024/02/06 06:28:16;;;;;;;9.10;2.10;;;;;;;;;;5033505;28;20064;-58
2024/02/06 06:30:41;;;;;;;9.07;2.33;;;;;;;;;;5031292;28;20033;-58
2024/02/06 06:33:06;;;;;;;10.57;2.40;;;;;;;;;;5028925;28;20112;-57
2024/02/06 06:35:31;;;;;;;9.97;2.57;;;;;;;;;;5034126;28;20026;-58
2024/02/06 06:37:56;;;;;;;8.30;2.28;;;;;;;;;;5028377;28;20030;-60
2024/02/06 06:40:21;;;;;;;10.68;2.33;;;;;;;;;;5023030;28;20017;-57
2024/02/06 06:42:47;;;;;;;10.77;2.20;;;;;;;;;;5025176;28;20502;-56
2024/02/06 06:45:12;;;;;;;8.65;2.78;;;;;;;;;;5024563;28;20021;-57
2024/02/06 06:47:37;;;;;;;9.33;2.17;;;;;;;;;;5029396;28;20112;-56
2024/02/06 06:50:02;;;;;;;6.60;1.87;;;;;;;;;;5028559;28;20009;-58
2024/02/06 06:52:29;;;;;;;10.00;2.63;;;;;;;;;;5022120;28;20091;-57
2024/02/06 06:54:55;;;;;;;10.82;2.42;;;;;;;;;;5029822;28;20087;-57
2024/02/06 06:57:20;;;;;;;12.13;2.60;;;;;;;;;;5030621;28;20018;-57
2024/02/06 06:59:45;;;;;;;8.02;2.10;;;;;;;;;;5028171;28;20021;-57
2024/02/06 07:02:10;;;;;;;6.97;2.15;;;;;;;;;;5021806;28;20033;-56
2024/02/06 07:04:36;;;;;;;8.00;3.25;;;;;;;;;;5019441;28;20038;-56
2024/02/06 07:07:01;;;;;;;10.55;2.97;;;;;;;;;;5023614;28;20109;-57
2024/02/06 07:09:27;;;;;;;8.70;2.33;;;;;;;;;;5032143;28;20026;-57
2024/02/06 07:11:52;;;;;;;9.87;2.20;;;;;;;;;;5031003;28;20105;-58
2024/02/06 07:14:17;;;;;;;10.40;2.33;;;;;;;;;;5032509;28;20044;-58
2024/02/06 07:16:42;;;;;;;9.17;2.17;;;;;;;;;;5034329;28;20029;-57
2024/02/06 07:19:07;;;;;;;7.93;2.13;;;;;;;;;;5031687;28;20029;-57
2024/02/06 07:21:33;;;;;;;10.77;1.83;;;;;;;;;;5031225;28;20032;-57
2024/02/06 07:23:58;;;;;;;10.05;2.00;;;;;;;;;;5030756;28;20130;-58
2024/02/06 07:26:23;;;;;;;8.27;2.37;;;;;;;;;;5032106;28;20037;-57
2024/02/06 07:28:48;;;;;;;8.70;1.90;;;;;;;;;;5030795;28;20022;-57
2024/02/06 07:31:16;;;;;;;6.70;1.90;;;;;;;;;;5016925;28;20034;-56
2024/02/06 07:33:42;;;;;;;8.85;2.70;;;;;;;;;;5031681;28;20079;-57
2024/02/06 07:36:07;;;;;;;7.80;1.80;;;;;;;;;;5030952;28;20021;-56
2024/02/06 07:38:33;;;;;;;8.00;1.70;;;;;;;;;;5031211;28;20017;-56
2024/02/06 07:40:58;;;;;;;8.68;1.90;;;;;;;;;;5020833;28;20493;-57
2024/02/06 07:43:24;;;;;;;7.63;1.90;;;;;;;;;;5026003;28;20018;-56
2024/02/06 07:45:50;;;;;;;6.57;1.80;;;;;;;;;;5047489;28;20036;-58
2024/02/06 07:48:18;;;;;;;6.18;1.70;;;;;;;;;;5047558;28;20075;-58
2024/02/06 07:50:43;;;;;;;6.80;2.05;;;;;;;;;;5043235;28;20036;-58
2024/02/06 07:53:08;;;;;;;6.90;1.87;;;;;;;;;;5045945;28;20045;-58
2024/02/06 07:55:34;;;;;;;7.82;1.92;;;;;;;;;;5038217;28;20705;-56
2024/02/06 07:57:59;;;;;;;7.22;2.05;;;;;;;;;;5042124;28;20025;-58
2024/02/06 08:00:24;;;;;;;7.30;1.60;;;;;;;;;;5033840;28;20014;-57
2024/02/06 08:02:50;;;;;;;5.57;1.70;;;;;;;;;;5032706;28;20440;-58
2024/02/06 08:05:16;;;;;;;6.15;1.60;;;;;;;;;;5032564;28;20037;-58
2024/02/06 08:07:41;;;;;;;5.38;1.70;;;;;;;;;;5029260;28;20024;-58
2024/02/06 08:10:07;;;;;;;6.43;1.70;;;;;;;;;;5031736;28;20036;-57
2024/02/06 08:12:32;;;;;;;5.82;1.30;;;;;;;;;;5030145;28;20103;-58
2024/02/06 08:14:57;;;;;;;5.57;1.80;;;;;;;;;;5031155;28;20048;-58
2024/02/06 08:17:22;;;;;;;5.30;1.40;;;;;;;;;;5031437;28;20017;-57
2024/02/06 08:19:48;;;;;;;5.93;1.65;;;;;;;;;;5032055;28;20024;-57
2024/02/06 08:22:16;;;;;;;5.03;1.57;;;;;;;;;;5031060;28;20056;-57
2024/02/06 08:24:41;;;;;;;8.23;1.60;;;;;;;;;;5036916;28;20075;-58
2024/02/06 08:27:06;;;;;;;8.47;1.50;;;;;;;;;;5036835;28;20025;-57
2024/02/06 08:29:31;;;;;;;5.57;1.43;;;;;;;;;;5040371;28;20022;-56
2024/02/06 08:31:57;;;;;;;4.38;1.40;;;;;;;;;;5034080;28;20036;-57
2024/02/06 08:34:22;;;;;;;6.53;1.35;;;;;;;;;;5042562;28;20029;-57
2024/02/06 08:36:47;;;;;;;5.53;1.37;;;;;;;;;;5044801;28;20092;-57
2024/02/06 08:39:12;;;;;;;4.78;1.20;;;;;;;;;;5043630;28;20013;-57
2024/02/06 08:41:37;;;;;;;6.18;1.70;;;;;;;;;;5032520;28;20076;-58
2024/02/06 08:44:02;;;;;;;6.97;1.63;;;;;;;;;;5029873;28;20473;-58
2024/02/06 08:46:28;;;;;;;4.30;1.07;;;;;;;;;;5030561;28;20071;-58
2024/02/06 08:48:54;;;;;;;4.80;0.93;;;;;;;;;;5037699;28;20436;-58
2024/02/06 08:51:19;;;;;;;4.70;1.40;;;;;;;;;;5038168;28;20473;-58
2024/02/06 08:53:44;;;;;;;5.55;1.10;;;;;;;;;;5038471;28;20064;-58
2024/02/06 08:56:10;;;;;;;4.20;1.17;;;;;;;;;;5037769;28;20022;-58
2024/02/06 08:58:35;;;;;;;4.95;1.20;;;;;;;;;;5037652;28;20087;-58
2024/02/06 09:01:00;;;;;;;6.43;1.20;;;;;;;;;;5034960;28;20052;-58
2024/02/06 09:03:25;;;;;;;9.80;1.48;;;;;;;;;;5037387;28;20033;-57
2024/02/06 09:05:52;;;;;;;5.47;1.50;;;;;;;;;;5037212;28;20017;-57
2024/02/06 09:08:17;;;;;;;5.90;1.20;;;;;;;;;;5037411;28;20462;-56
2024/02/06 09:10:42;;;;;;;5.25;1.20;;;;;;;;;;5037415;28;20024;-57
2024/02/06 09:13:07;;;;;;;5.03;1.50;;;;;;;;;;5036122;28;20366;-57
2024/02/06 09:15:32;;;;;;;4.80;1.17;;;;;;;;;;5037021;28;20029;-58
2024/02/06 09:17:59;;;;;;;5.00;1.10;;;;;;;;;;5036996;28;20041;-58
2024/02/06 09:20:24;;;;;;;4.60;1.20;;;;;;;;;;5037427;28;20108;-56
2024/02/06 09:22:49;;;;;;;4.90;1.10;;;;;;;;;;5037071;28;20109;-57
2024/02/06 09:25:16;;;;;;;3.72;0.98;;;;;;;;;;5035354;28;20060;-58
2024/02/06 09:27:42;;;;;;;6.53;1.10;;;;;;;;;;5037129;28;20048;-57
2024/02/06 09:30:09;;;;;;;;;;;;;;;;;;5034567;28;20382;-57
2024/02/06 09:32:34;;;;;;;6.97;1.10;;;;;;;;;;5034519;28;19909;-58
2024/02/06 09:35:00;;;;;;;6.38;1.13;;;;;;;;;;5035161;28;20056;-57
2024/02/06 09:37:26;;;;;;;6.63;1.10;;;;;;;;;;5031706;28;20405;-57
2024/02/06 09:39:52;;;;;;;8.55;1.80;;;;;;;;;;5028648;28;20032;-58
2024/02/06 09:42:17;;;;;;;5.70;1.13;;;;;;;;;;5037161;28;20017;-57
2024/02/06 09:44:43;;;;;;;4.45;1.23;;;;;;;;;;5035788;28;20104;-57
2024/02/06 09:47:08;;;;;;;7.15;1.20;;;;;;;;;;5038300;28;20474;-57
2024/02/06 09:49:33;;;;;;;8.37;1.20;;;;;;;;;;5039235;28;20029;-58
2024/02/06 09:52:01;;;;;;;3.97;0.90;;;;;;;;;;5037894;28;20490;-58
2024/02/06 09:54:26;;;;;;;3.58;0.90;;;;;;;;;;5039530;28;20017;-56
2024/02/06 09:56:56;;;;;;;4.07;1.10;;;;;;;;;;5036439;28;20029;-58
2024/02/06 09:59:22;;;;;;;3.78;1.00;;;;;;;;;;5035723;28;20021;-57
2024/02/06 10:01:51;;;;;;;4.72;1.00;;;;;;;;;;5035595;28;20500;-57
2024/02/06 10:04:19;;;;;;;4.03;1.08;;;;;;;;;;5032589;28;20117;-58
2024/02/06 10:06:47;;;;;;;5.10;1.58;;;;;;;;;;5033987;28;20049;-57
2024/02/06 10:09:12;;;;;;;5.55;1.10;;;;;;;;;;5033857;28;20555;-58
2024/02/06 10:11:38;;;;;;;3.88;0.95;;;;;;;;;;5033441;28;20057;-56
2024/02/06 10:14:04;;;;;;;3.90;1.10;;;;;;;;;;5034041;28;20021;-56
2024/02/06 10:16:29;;;;;;;2.95;0.90;;;;;;;;;;5034084;28;20071;-58
2024/02/06 10:18:55;;;;;;;4.38;1.05;;;;;;;;;;5033826;28;20044;-58
2024/02/06 10:21:20;;;;;;;5.30;1.13;;;;;;;;;;5034231;28;20029;-58
2024/02/06 10:23:46;;;;;;;4.47;1.10;;;;;;;;;;5035470;28;20024;-58
2024/02/06 10:26:16;;;;;;;6.15;1.10;;;;;;;;;;5034285;28;20022;-58
2024/02/06 10:28:41;;;;;;;3.15;1.00;;;;;;;;;;5034030;28;20013;-58
2024/02/06 10:31:10;;;;;;;3.20;0.85;;;;;;;;;;5032240;28;20531;-56
2024/02/06 10:33:35;;;;;;;4.88;1.15;;;;;;;;;;5033786;28;20036;-57
2024/02/06 10:36:04;;;;;;;5.20;1.10;;;;;;;;;;5035959;28;20026;-57
2024/02/06 10:38:29;;;;;;;3.72;1.17;;;;;;;;;;5036541;28;20036;-57
2024/02/06 10:40:54;;;;;;;4.17;0.90;;;;;;;;;;5037537;28;20013;-57
2024/02/06 10:43:19;;;;;;;6.00;1.00;;;;;;;;;;5048294;28;20017;-57
2024/02/06 10:45:45;;;;;;;5.20;1.07;;;;;;;;;;5048624;28;20085;-57
2024/02/06 10:48:10;;;;;;;5.03;1.10;;;;;;;;;;5043235;28;20377;-57
2024/02/06 10:50:36;;;;;;;3.50;0.90;;;;;;;;;;5032003;28;20037;-57
2024/02/06 10:53:02;;;;;;;5.10;1.42;;;;;;;;;;5032769;28;20592;-56
2024/02/06 10:55:28;;;;;;;5.03;1.30;;;;;;;;;;5033111;28;20013;-57
2024/02/06 10:57:59;;;;;;;4.53;1.00;;;;;;;;;;5025734;28;20117;-57
2024/02/06 11:00:26;;;;;;;4.30;0.98;;;;;;;;;;5031937;28;20036;-58
2024/02/06 11:02:52;;;;;;;4.60;1.08;;;;;;;;;;5029531;28;20029;-57
2024/02/06 11:05:21;;;;;;;3.90;0.93;;;;;;;;;;5030889;28;20495;-58
2024/02/06 11:07:52;;;;;;;3.50;0.90;;;;;;;;;;5033116;28;20087;-56
2024/02/06 11:10:20;;;;;;;2.97;0.90;;;;;;;;;;5032409;28;20028;-57
2024/02/06 11:12:48;;;;;;;3.47;0.98;;;;;;;;;;5032544;28;20148;-58
2024/02/06 11:15:15;;;;;;;2.10;0.70;;;;;;;;;;5032144;28;20022;-57
2024/02/06 11:17:41;;;;;;;4.18;0.80;;;;;;;;;;5031670;28;20025;-57
2024/02/06 11:20:11;;;;;;;3.30;1.00;;;;;;;;;;5032893;28;20105;-57
2024/02/06 11:22:37;;;;;;;3.95;1.20;;;;;;;;;;5032357;28;20025;-57
2024/02/06 11:25:02;;;;;;;3.75;1.00;;;;;;;;;;5031929;28;20032;-58
2024/02/06 11:27:28;;;;;;;5.25;1.13;;;;;;;;;;5032081;28;20485;-57
2024/02/06 11:29:53;;;;;;;3.90;0.88;;;;;;;;;;5032539;28;20497;-57
2024/02/06 11:32:19;;;;;;;3.67;1.07;;;;;;;;;;5028933;28;20013;-58
2024/02/06 11:34:55;;;;;;;2.40;0.73;;;;;;;;;;5031371;28;20021;-56
2024/02/06 11:37:23;;;;;;;4.80;1.15;;;;;;;;;;5032072;28;20031;-58
2024/02/06 11:39:49;;;;;;;3.33;1.00;;;;;;;;;;5032059;28;20163;-57
2024/02/06 11:42:21;;;;;;;4.20;1.00;;;;;;;;;;5031987;28;20108;-57
2024/02/06 11:44:46;;;;;;;4.78;1.05;;;;;;;;;;5031712;28;20021;-57
2024/02/06 11:47:19;;;;;;;5.70;1.70;;;;;;;;;;5031314;28;20017;-57
2024/02/06 11:49:44;;;;;;;4.30;0.98;;;;;;;;;;5032799;28;20021;-58
2024/02/06 11:52:19;;;;;;;5.38;1.08;;;;;;;;;;5034110;28;20537;-58
2024/02/06 11:54:44;;;;;;;3.58;0.98;;;;;;;;;;5032975;28;20133;-57
2024/02/06 11:57:10;;;;;;;4.73;1.07;;;;;;;;;;5032920;28;20048;-58
2024/02/06 11:59:35;;;;;;;3.92;0.98;;;;;;;;;;5031446;28;20101;-57
2024/02/06 12:02:09;;;;;;;3.53;0.97;;;;;;;;;;5028289;28;20022;-57
2024/02/06 12:04:34;;;;;;;3.60;1.00;;;;;;;;;;5028722;28;20851;-57
2024/02/06 12:07:03;;;;;;;4.10;0.80;;;;;;;;;;5027804;28;20009;-57
2024/02/06 12:09:35;;;;;;;5.72;1.00;;;;;;;;;;5020043;28;20474;-56
2024/02/06 12:12:01;;;;;;;3.58;1.08;;;;;;;;;;5031566;28;20113;-58
2024/02/06 12:14:28;;;;;;;3.10;1.13;;;;;;;;;;5031594;28;20519;-57
2024/02/06 12:16:53;;;;;;;;;;;;;;;;;;5037017;28;20040;-58
2024/02/06 12:19:19;;;;;;;4.57;1.08;;;;;;;;;;5036524;28;19905;-58
2024/02/06 12:21:44;;;;;;;3.88;0.90;;;;;;;;;;5035777;28;20039;-57
2024/02/06 12:24:09;;;;;;;4.20;1.10;;;;;;;;;;5030258;28;20481;-58
2024/02/06 12:26:35;;;;;;;4.93;1.10;;;;;;;;;;5024729;28;20444;-59
2024/02/06 12:29:03;;;;;;;4.00;1.10;;;;;;;;;;5031303;28;20096;-58
2024/02/06 12:31:30;;;;;;;4.45;0.90;;;;;;;;;;5031481;28;20021;-59
2024/02/06 12:33:55;;;;;;;4.32;1.10;;;;;;;;;;5030995;28;20483;-58
2024/02/06 12:36:20;;;;;;;3.93;1.10;;;;;;;;;;5040358;28;20155;-58
2024/02/06 12:38:50;;;;;;;5.60;1.13;;;;;;;;;;5030909;28;20028;-59
2024/02/06 12:41:15;;;;;;;4.15;1.20;;;;;;;;;;5030887;28;20025;-58
2024/02/06 12:43:40;;;;;;;3.83;0.73;;;;;;;;;;5030811;28;20024;-57
2024/02/06 12:46:06;;;;;;;3.83;1.00;;;;;;;;;;5029871;28;20630;-58
2024/02/06 12:48:31;;;;;;;2.40;0.80;;;;;;;;;;5028498;28;20056;-57
2024/02/06 12:50:56;;;;;;;3.83;1.00;;;;;;;;;;5028563;28;20021;-57
2024/02/06 12:53:25;;;;;;;4.70;0.90;;;;;;;;;;5030155;28;20025;-57
2024/02/06 12:55:51;;;;;;;3.63;0.93;;;;;;;;;;5028118;28;20010;-59
2024/02/06 12:58:17;;;;;;;4.90;1.05;;;;;;;;;;5030676;28;20080;-58
2024/02/06 13:00:42;;;;;;;3.67;1.10;;;;;;;;;;5029991;28;20013;-57
2024/02/06 13:03:07;;;;;;;3.47;0.85;;;;;;;;;;5024306;28;20041;-57
2024/02/06 13:05:34;;;;;;;6.03;1.17;;;;;;;;;;5030182;28;20036;-58
2024/02/06 13:07:59;;;;;;;;;;;;;;;;;;5034484;28;20440;-57
2024/02/06 13:10:25;;;;;;;4.38;0.90;;;;;;;;;;5034624;28;19915;-57
2024/02/06 13:12:50;;;;;;;3.35;0.90;;;;;;;;;;5029014;28;20098;-57
2024/02/06 13:15:17;;;;;;;3.80;1.13;;;;;;;;;;5024795;28;20485;-58
2024/02/06 13:17:42;;;;;;;3.22;0.90;;;;;;;;;;5025964;28;20338;-57
2024/02/06 13:20:09;;;;;;;7.03;1.13;;;;;;;;;;5024663;28;20019;-57
2024/02/06 13:22:38;;;;;;;3.33;1.20;;;;;;;;;;5033468;28;20063;-57
2024/02/06 13:25:04;;;;;;;3.72;0.85;;;;;;;;;;5039782;28;20489;-57
2024/02/06 13:27:29;;;;;;;3.47;0.90;;;;;;;;;;5045995;28;20144;-57
2024/02/06 13:29:54;;;;;;;5.05;1.38;;;;;;;;;;5032417;28;20076;-57
2024/02/06 13:32:19;;;;;;;4.50;1.03;;;;;;;;;;5045241;28;20090;-57
2024/02/06 13:34:44;;;;;;;4.95;1.00;;;;;;;;;;5039394;28;20048;-57
2024/02/06 13:37:11;;;;;;;4.60;1.00;;;;;;;;;;5039292;28;20017;-57
2024/02/06 13:39:36;;;;;;;;;;;;;;;;;;5032052;28;20022;-58
2024/02/06 13:42:01;;;;;;;4.70;1.05;;;;;;;;;;5027922;28;19917;-57
2024/02/06 13:44:26;;;;;;;4.97;1.00;;;;;;;;;;5033228;28;20026;-57
2024/02/06 13:46:51;;;;;;;6.55;1.50;;;;;;;;;;5032742;28;20029;-57
2024/02/06 13:49:17;;;;;;;4.18;1.00;;;;;;;;;;5032761;28;20045;-57
2024/02/06 13:51:42;;;;;;;3.97;0.83;;;;;;;;;;5033645;28;20429;-57
2024/02/06 13:54:07;;;;;;;3.85;0.80;;;;;;;;;;5027637;28;20022;-57
2024/02/06 13:56:32;;;;;;;5.18;0.82;;;;;;;;;;5030971;28;20100;-57
2024/02/06 13:58:58;;;;;;;4.47;1.08;;;;;;;;;;5026982;28;20104;-57
2024/02/06 14:01:27;;;;;;;3.63;1.00;;;;;;;;;;5031013;28;20100;-58
2024/02/06 14:03:52;;;;;;;5.65;1.00;;;;;;;;;;5034129;28;20467;-57
2024/02/06 14:06:18;;;;;;;4.63;1.15;;;;;;;;;;5031018;28;20045;-57
2024/02/06 14:08:43;;;;;;;4.22;0.75;;;;;;;;;;5031307;28;20033;-57
2024/02/06 14:11:08;;;;;;;3.20;0.93;;;;;;;;;;5028923;28;20083;-57
2024/02/06 14:13:33;;;;;;;3.50;1.08;;;;;;;;;;5032518;28;20018;-57
2024/02/06 14:16:00;;;;;;;5.30;0.90;;;;;;;;;;5028644;28;20029;-57
2024/02/06 14:18:26;;;;;;;3.47;0.80;;;;;;;;;;5026223;28;20028;-58
2024/02/06 14:20:51;;;;;;;4.20;0.90;;;;;;;;;;5031032;28;20381;-57
2024/02/06 14:23:16;;;;;;;4.37;0.90;;;;;;;;;;5023877;28;20021;-57
2024/02/06 14:25:41;;;;;;;4.57;1.30;;;;;;;;;;5025109;28;20032;-57
2024/02/06 14:28:06;;;;;;;3.03;1.00;;;;;;;;;;5023790;28;20472;-57
2024/02/06 14:30:32;;;;;;;2.58;0.80;;;;;;;;;;5026101;28;20029;-57